Orto / Ocaso: 05:37 / 19:01 UTC (Datos para LEAX 20-08-2019)

[fuente: ADDS]

METAR:


LEMG 200100Z 10006KT 9999 FEW006 24/22 Q1014 NOSIG =
TAF LEMG 192300Z 2000/2024 29004KT 9999 FEW010 TX29/2014Z TN21/2006Z PROB40 TEMPO 2000/2008 11006KT PROB30 TEMPO 2002/2008 4000 BR BKN010 BECMG 2008/2010 11009KT LEGR 200100Z AUTO VRB01KT 9999 NCD 22/10 Q1017 =
TAF LEGR 192000Z 1921/2021 24004KT CAVOK TX36/2015Z TN17/2006Z PROB40 TEMPO 2017/2021 17010KT LEZL 200100Z AUTO 19005KT 160V260 9999 NCD 22/12 Q1014 =
TAF LEZL 192000Z 1921/2021 23006KT CAVOK TX36/2015Z TN20/2006Z LEAM 200100Z AUTO VRB02KT 9999 NCD 25/22 Q1014 =
TAF LEAM 192000Z 1921/2021 VRB02KT CAVOK TX30/2011Z TN23/2006Z PROB30 TEMPO 2000/2007 4000 BR SCT010 BECMG 2008/2011 17012KT BECMG 2017/2020 06016KT LEBA 200100Z AUTO 25004KT 9999 NCD 22/11 Q1014 =
TAF LEBA 191700Z 1918/2003 25006KT CAVOK LEJR 200100Z AUTO 13002KT 9999 NCD 18/14 Q1015 =
TAF LEJR 192300Z 2000/2024 20004KT CAVOK TX32/2014Z TN16/2006Z TEMPO 2013/2018 26010KT GEML 200100Z AUTO 25007KT 200V320 9999 NCD 27/13 Q1014 =
TAF GEML 192000Z 1921/2021 26008KT CAVOK TX32/2014Z TN23/2006Z LXGB 200050Z AUTO 24011KT 9999 // NCD 24/10 Q1014 =
TAF LXGB 191634Z 1918/1922 26012KT CAVOK TEMPO 1918/1919 20015KT 520001

TAFOR:


TAF LEMG 192300Z 2000/2024 29004KT 9999 FEW010 TX29/2014Z TN21/2006Z PROB40 TEMPO 2000/2008 11006KT PROB30 TEMPO 2002/2008 4000 BR BKN010 BECMG 2008/2010 11009KT =
TAF LEGR 192000Z 1921/2021 24004KT CAVOK TX36/2015Z TN17/2006Z PROB40 TEMPO 2017/2021 17010KT =
TAF LEZL 192000Z 1921/2021 23006KT CAVOK TX36/2015Z TN20/2006Z =
TAF LEAM 192000Z 1921/2021 VRB02KT CAVOK TX30/2011Z TN23/2006Z PROB30 TEMPO 2000/2007 4000 BR SCT010 BECMG 2008/2011 17012KT BECMG 2017/2020 06016KT =
TAF LEBA 191700Z 1918/2003 25006KT CAVOK =
TAF LEJR 192300Z 2000/2024 20004KT CAVOK TX32/2014Z TN16/2006Z TEMPO 2013/2018 26010KT =
TAF GEML 192000Z 1921/2021 26008KT CAVOK TX32/2014Z TN23/2006Z =
TAF LXGB 191634Z 1918/1922 26012KT CAVOK TEMPO 1918/1919 20015KT 520001 =

Recuerde que, aunque regularmente actualizada, la información meteorológica aquí presentada no debe ser utilizada para la planificación de vuelos. Si lo desea, puede consultar la información meteorológica adecuada, tanto de aeródromos como en ruta, por las vías oficialmente establecidas en la legislación -> AQUí

Utilizamos "cookies" propias y de terceros para analizar nuestros servicios, medir las audiencias, personalizar el contenido que ofrecemos y mostrar información adaptada a sus intereses mediante la obtención de los datos necesarios para perfilar sus hábitos de navegación e inferir grupos de interés, siempre de modo anónimo. Si continúa utilizando el sitio web AEROCLUBMALAGA.COM, significa que acepta sus términos y condiciones y el uso de "cookies" al utilizar el sitio web y nuestros servicios. Asimismo, podemos utilizar fuentes de datos externas para elaborar estos grupos de interés, así compartir los análisis de navegación y los grupos de interés inferidos con terceros con el objetivo de personalizar los contenidos. Para obtener más información sobre las cookies que utilizamos y cómo eliminarlas, consulte nuestra política de privacidad.

Acepto las cookies de esta página web.
EU Cookie Directive plugin by www.channeldigital.co.uk